Time;durP1;ratioP1;P1;durP2;ratioP2;P2;SDS_P1;SDS_P2;PMS_P1;PMS_P2;Temp;Humidity;BMP_temperature;BMP_pressure;BME280_temperature;BME280_humidity;BME280_pressure;Samples;Min_cycle;Max_cycle;Signal;HPM_P1;HPM_P2
2022/12/11 00:01:36;;;;;;;13.27;8.93;;;;;;;;;;1738315;80;21056;-57
2022/12/11 00:04:02;;;;;;;11.90;7.43;;;;;;;;;;1733398;80;23244;-60
2022/12/11 00:06:28;;;;;;;18.23;8.77;;;;;;;;;;1734162;80;21077;-58
2022/12/11 00:08:56;;;;;;;11.47;8.30;;;;;;;;;;1740243;80;21061;-59
2022/12/11 00:11:22;;;;;;;14.63;8.47;;;;;;;;;;1736932;80;21089;-58
2022/12/11 00:13:48;;;;;;;19.90;10.63;;;;;;;;;;1740441;80;21094;-59
2022/12/11 00:16:14;;;;;;;16.70;10.00;;;;;;;;;;1736120;80;21830;-57
2022/12/11 00:18:40;;;;;;;29.43;14.43;;;;;;;;;;1737551;80;22344;-57
2022/12/11 00:21:09;;;;;;;26.53;12.33;;;;;;;;;;1734389;80;21164;-59
2022/12/11 00:23:36;;;;;;;32.87;14.63;;;;;;;;;;1737213;80;21654;-58
2022/12/11 00:26:06;;;;;;;30.10;14.67;;;;;;;;;;1734020;80;21090;-57
2022/12/11 00:28:32;;;;;;;19.67;11.70;;;;;;;;;;1735405;80;21768;-58
2022/12/11 00:30:58;;;;;;;18.50;10.07;;;;;;;;;;1733536;80;21071;-58
2022/12/11 00:33:25;;;;;;;25.13;12.20;;;;;;;;;;1739974;80;21182;-57
2022/12/11 00:35:51;;;;;;;23.87;13.40;;;;;;;;;;1736968;80;21060;-57
2022/12/11 00:38:19;;;;;;;24.10;11.57;;;;;;;;;;1740724;80;21112;-58
2022/12/11 00:40:46;;;;;;;19.37;12.37;;;;;;;;;;1739279;80;21938;-58
2022/12/11 00:43:12;;;;;;;19.30;12.50;;;;;;;;;;1739519;80;21501;-58
2022/12/11 00:45:39;;;;;;;18.13;11.23;;;;;;;;;;1736359;80;21117;-58
2022/12/11 00:48:06;;;;;;;18.40;11.50;;;;;;;;;;1711984;82;21104;-57
2022/12/11 00:50:32;;;;;;;22.17;12.30;;;;;;;;;;1738149;80;21869;-58
2022/12/11 00:52:59;;;;;;;16.90;10.70;;;;;;;;;;1735737;80;21826;-60
2022/12/11 00:55:27;;;;;;;17.87;11.47;;;;;;;;;;1741951;80;21053;-59
2022/12/11 00:57:54;;;;;;;20.37;12.27;;;;;;;;;;1736994;80;21057;-58
2022/12/11 01:00:21;;;;;;;28.20;14.03;;;;;;;;;;1744374;80;21072;-57
2022/12/11 01:02:48;;;;;;;46.53;17.47;;;;;;;;;;1736283;80;21053;-58
2022/12/11 01:05:14;;;;;;;42.83;16.90;;;;;;;;;;1738477;80;21829;-58
2022/12/11 01:07:40;;;;;;;40.20;19.03;;;;;;;;;;1739433;80;21346;-59
2022/12/11 01:10:23;;;;;;;36.30;16.43;;;;;;;;;;1737147;80;21522;-57
2022/12/11 01:13:03;;;;;;;35.43;17.45;;;;;;;;;;1706504;82;29549;-57
2022/12/11 01:15:32;;;;;;;44.33;16.53;;;;;;;;;;1736778;80;21022;-58
2022/12/11 01:17:58;;;;;;;54.17;23.90;;;;;;;;;;1739062;80;21796;-59
2022/12/11 01:20:24;;;;;;;51.27;20.67;;;;;;;;;;1737376;80;21507;-57
2022/12/11 01:22:57;;;;;;;54.20;19.00;;;;;;;;;;1738792;80;21029;-57
2022/12/11 01:25:24;;;;;;;37.80;17.20;;;;;;;;;;1736504;80;21034;-59
2022/12/11 01:27:51;;;;;;;36.97;18.27;;;;;;;;;;1740479;80;21049;-60
2022/12/11 01:30:17;;;;;;;33.07;16.43;;;;;;;;;;1734461;80;21847;-57
2022/12/11 01:32:43;;;;;;;30.13;15.70;;;;;;;;;;1741119;80;21007;-58
2022/12/11 01:35:10;;;;;;;25.63;14.17;;;;;;;;;;1741713;80;21324;-59
2022/12/11 01:37:36;;;;;;;23.30;12.17;;;;;;;;;;1742213;80;21062;-57
2022/12/11 01:40:02;;;;;;;17.73;11.53;;;;;;;;;;1737115;80;21034;-58
2022/12/11 01:42:29;;;;;;;15.40;10.67;;;;;;;;;;1734787;80;22508;-59
2022/12/11 01:45:15;;;;;;;17.57;10.57;;;;;;;;;;1737378;80;21456;-58
2022/12/11 01:47:42;;;;;;;20.37;10.87;;;;;;;;;;1737123;80;21025;-57
2022/12/11 01:50:08;;;;;;;16.20;11.10;;;;;;;;;;1735954;80;20962;-57
2022/12/11 01:52:35;;;;;;;16.40;12.03;;;;;;;;;;1737327;80;21042;-58
2022/12/11 01:55:01;;;;;;;17.27;11.80;;;;;;;;;;1741539;80;21827;-57
2022/12/11 01:57:28;;;;;;;16.17;11.67;;;;;;;;;;1742547;80;20963;-57
2022/12/11 01:59:54;;;;;;;15.43;11.33;;;;;;;;;;1731282;80;21037;-58
2022/12/11 02:02:29;;;;;;;12.10;10.67;;;;;;;;;;1734332;80;22700;-58
2022/12/11 02:04:55;;;;;;;12.50;10.17;;;;;;;;;;1739081;80;21049;-59
2022/12/11 02:07:21;;;;;;;15.47;10.13;;;;;;;;;;1736257;80;21819;-58
2022/12/11 02:09:47;;;;;;;15.90;10.97;;;;;;;;;;1736615;80;21026;-59
2022/12/11 02:12:31;;;;;;;12.23;10.67;;;;;;;;;;1734731;80;22366;-56
2022/12/11 02:15:34;;;;;;;12.53;10.13;;;;;;;;;;1738820;80;21073;-57
2022/12/11 02:18:16;;;;;;;20.13;13.13;;;;;;;;;;1734343;80;21077;-59
2022/12/11 02:20:52;;;;;;;15.00;11.13;;;;;;;;;;1734408;80;21860;-58
2022/12/11 02:23:25;;;;;;;20.80;12.93;;;;;;;;;;1728219;80;21100;-57
2022/12/11 02:26:29;;;;;;;20.27;13.93;;;;;;;;;;1735308;80;21059;-56
2022/12/11 02:29:06;;;;;;;30.30;15.13;;;;;;;;;;1728070;80;21055;-57
2022/12/11 02:31:35;;;;;;;23.80;13.80;;;;;;;;;;1718217;81;21509;-57
2022/12/11 02:34:05;;;;;;;29.87;17.07;;;;;;;;;;1721879;81;21841;-58
2022/12/11 02:36:35;;;;;;;25.87;14.93;;;;;;;;;;1721486;81;21055;-59
2022/12/11 02:39:01;;;;;;;32.83;18.20;;;;;;;;;;1720527;81;21050;-59
2022/12/11 02:41:28;;;;;;;37.17;19.93;;;;;;;;;;1728187;81;21078;-59
2022/12/11 02:43:54;;;;;;;46.57;21.70;;;;;;;;;;1720238;81;21057;-59
2022/12/11 02:46:21;;;;;;;58.13;23.20;;;;;;;;;;1724353;81;21821;-59
2022/12/11 02:48:47;;;;;;;52.77;21.87;;;;;;;;;;1727378;81;21975;-59
2022/12/11 02:51:14;;;;;;;43.07;20.63;;;;;;;;;;1722136;81;21816;-58
2022/12/11 02:53:40;;;;;;;18.57;10.60;;;;;;;;;;1727796;81;21125;-58
2022/12/11 02:56:16;;;;;;;11.30;8.20;;;;;;;;;;1712814;81;21070;-59
2022/12/11 02:58:49;;;;;;;7.73;6.10;;;;;;;;;;1728592;81;21300;-59
2022/12/11 03:01:15;;;;;;;6.47;5.43;;;;;;;;;;1720221;81;21121;-59
2022/12/11 03:03:41;;;;;;;7.33;5.97;;;;;;;;;;1726282;81;21280;-59
2022/12/11 03:06:09;;;;;;;7.93;6.33;;;;;;;;;;1725471;81;21038;-58
2022/12/11 03:08:36;;;;;;;6.50;5.90;;;;;;;;;;1725855;81;21562;-59
2022/12/11 03:12:48;;;;;;;6.17;5.00;;;;;;;;;;1793509;77;21984;-57
2022/12/11 03:15:17;;;;;;;6.87;4.63;;;;;;;;;;1781842;78;21029;-58
2022/12/11 03:17:56;;;;;;;12.97;4.73;;;;;;;;;;1778456;79;21853;-58
2022/12/11 03:20:43;;;;;;;4.63;4.10;;;;;;;;;;1778825;79;21053;-58
2022/12/11 03:23:24;;;;;;;5.13;4.17;;;;;;;;;;1780178;78;21006;-60
2022/12/11 03:25:53;;;;;;;3.57;3.27;;;;;;;;;;1776361;79;20970;-60
2022/12/11 03:28:35;;;;;;;4.57;3.83;;;;;;;;;;1780134;78;20998;-60
2022/12/11 03:31:04;;;;;;;5.43;4.90;;;;;;;;;;1781373;78;21889;-60
2022/12/11 03:33:42;;;;;;;4.73;4.33;;;;;;;;;;1779318;78;20970;-60
2022/12/11 03:36:20;;;;;;;4.90;3.93;;;;;;;;;;1779892;78;20977;-60
2022/12/11 03:38:50;;;;;;;4.83;4.43;;;;;;;;;;1780725;78;21033;-60
2022/12/11 03:41:17;;;;;;;6.30;3.30;;;;;;;;;;1774974;79;20966;-59
2022/12/11 03:43:43;;;;;;;3.73;3.43;;;;;;;;;;1752305;79;21791;-60
2022/12/11 03:46:09;;;;;;;4.27;3.47;;;;;;;;;;1774346;78;21098;-60
2022/12/11 03:48:37;;;;;;;3.73;3.07;;;;;;;;;;1723762;80;21069;-59
2022/12/11 03:51:04;;;;;;;5.57;3.13;;;;;;;;;;1780714;78;21334;-59
2022/12/11 03:53:32;;;;;;;3.50;3.20;;;;;;;;;;1777824;78;21041;-59
2022/12/11 03:55:58;;;;;;;2.80;2.17;;;;;;;;;;1776023;78;22245;-59
2022/12/11 03:58:24;;;;;;;3.07;2.77;;;;;;;;;;1777169;78;21052;-63
2022/12/11 04:00:51;;;;;;;2.40;2.13;;;;;;;;;;1774356;78;21100;-59
2022/12/11 04:03:17;;;;;;;3.87;2.97;;;;;;;;;;1776608;78;22332;-60
2022/12/11 04:05:45;;;;;;;3.60;3.30;;;;;;;;;;1772611;78;21609;-59
2022/12/11 04:08:11;;;;;;;8.83;3.63;;;;;;;;;;1777060;78;21816;-60
2022/12/11 04:10:38;;;;;;;3.30;3.00;;;;;;;;;;1772726;78;21025;-60
2022/12/11 04:13:05;;;;;;;6.47;2.60;;;;;;;;;;1768271;79;20964;-60
2022/12/11 04:15:31;;;;;;;3.40;2.57;;;;;;;;;;1761551;79;21041;-60
2022/12/11 04:26:13;;;;;;;3.08;2.40;;;;;;;;;;1763383;79;21060;-59
2022/12/11 04:28:40;;;;;;;4.37;2.63;;;;;;;;;;1765127;79;21625;-58
2022/12/11 04:31:15;;;;;;;4.80;2.83;;;;;;;;;;1765215;79;21051;-57
2022/12/11 04:33:41;;;;;;;2.60;2.40;;;;;;;;;;1761950;79;21746;-57
2022/12/11 04:36:08;;;;;;;2.20;2.00;;;;;;;;;;1762808;79;21051;-58
2022/12/11 04:38:35;;;;;;;2.33;2.10;;;;;;;;;;1755851;79;21123;-58
2022/12/11 04:41:03;;;;;;;2.90;1.93;;;;;;;;;;1760955;79;21113;-58
2022/12/11 04:43:29;;;;;;;5.70;3.73;;;;;;;;;;1762075;79;21035;-59
2022/12/11 04:46:04;;;;;;;7.77;2.50;;;;;;;;;;1764642;79;21935;-58
2022/12/11 04:48:31;;;;;;;4.03;2.60;;;;;;;;;;1763274;80;21057;-59
2022/12/11 04:50:57;;;;;;;2.20;2.10;;;;;;;;;;1764207;79;21046;-60
2022/12/11 04:53:23;;;;;;;6.30;2.50;;;;;;;;;;1758056;79;21125;-59
2022/12/11 04:55:50;;;;;;;2.20;2.10;;;;;;;;;;1765359;79;21327;-59
2022/12/11 04:58:16;;;;;;;6.33;1.97;;;;;;;;;;1762309;79;21865;-60
2022/12/11 05:00:42;;;;;;;2.00;1.73;;;;;;;;;;1761349;79;21038;-60
2022/12/11 05:03:08;;;;;;;2.27;1.37;;;;;;;;;;1758221;79;21074;-60
2022/12/11 05:05:34;;;;;;;2.03;1.57;;;;;;;;;;1764037;79;21587;-60
2022/12/11 05:08:02;;;;;;;3.37;1.80;;;;;;;;;;1764062;79;21625;-60
2022/12/11 05:10:28;;;;;;;5.90;1.70;;;;;;;;;;1763450;79;21355;-58
2022/12/11 05:12:54;;;;;;;1.80;1.10;;;;;;;;;;1739445;80;21110;-60
2022/12/11 05:15:22;;;;;;;1.93;1.23;;;;;;;;;;1729689;80;21059;-59
2022/12/11 05:17:48;;;;;;;3.30;1.47;;;;;;;;;;1733758;81;21772;-60
2022/12/11 05:20:14;;;;;;;4.03;1.63;;;;;;;;;;1732757;81;21517;-58
2022/12/11 05:22:40;;;;;;;2.13;1.73;;;;;;;;;;1731617;80;21839;-58
2022/12/11 05:25:07;;;;;;;3.40;1.77;;;;;;;;;;1728154;80;21059;-58
2022/12/11 05:27:33;;;;;;;2.30;1.60;;;;;;;;;;1733480;80;21065;-59
2022/12/11 05:29:59;;;;;;;2.73;1.60;;;;;;;;;;1734166;80;21074;-58
2022/12/11 05:32:25;;;;;;;4.13;1.70;;;;;;;;;;1730871;81;21022;-60
2022/12/11 05:34:52;;;;;;;1.80;1.57;;;;;;;;;;1732130;80;21912;-59
2022/12/11 05:37:18;;;;;;;2.23;1.80;;;;;;;;;;1736797;81;21070;-60
2022/12/11 05:39:44;;;;;;;3.13;1.70;;;;;;;;;;1731472;81;21162;-59
2022/12/11 05:42:11;;;;;;;3.07;2.43;;;;;;;;;;1730532;80;21055;-59
2022/12/11 05:44:37;;;;;;;2.30;2.00;;;;;;;;;;1730019;81;21107;-60
2022/12/11 05:47:03;;;;;;;2.23;2.00;;;;;;;;;;1730302;80;21974;-60
2022/12/11 05:49:30;;;;;;;3.50;1.80;;;;;;;;;;1730244;80;21091;-59
2022/12/11 05:51:56;;;;;;;3.50;1.30;;;;;;;;;;1734799;80;21351;-60
2022/12/11 05:54:22;;;;;;;9.87;2.03;;;;;;;;;;1736351;81;21573;-60
2022/12/11 05:56:49;;;;;;;2.27;2.07;;;;;;;;;;1728931;81;21107;-60
2022/12/11 05:59:15;;;;;;;2.47;2.03;;;;;;;;;;1736194;80;21847;-59
2022/12/11 06:01:41;;;;;;;10.47;2.27;;;;;;;;;;1733529;81;21172;-61
2022/12/11 06:04:08;;;;;;;2.30;2.07;;;;;;;;;;1731253;80;20985;-61
2022/12/11 06:06:35;;;;;;;1.50;1.40;;;;;;;;;;1744759;80;21032;-60
2022/12/11 06:09:01;;;;;;;3.37;1.80;;;;;;;;;;1736494;81;21063;-61
2022/12/11 06:11:28;;;;;;;3.10;1.57;;;;;;;;;;1732551;80;21800;-60
2022/12/11 06:13:54;;;;;;;1.87;1.37;;;;;;;;;;1776096;79;21017;-61
2022/12/11 06:16:21;;;;;;;4.23;1.53;;;;;;;;;;1761533;79;21180;-61
2022/12/11 06:18:47;;;;;;;5.57;1.97;;;;;;;;;;1770024;79;21036;-61
2022/12/11 06:21:15;;;;;;;3.27;1.73;;;;;;;;;;1770830;79;21076;-61
2022/12/11 06:23:41;;;;;;;4.83;1.47;;;;;;;;;;1772958;79;23155;-63
2022/12/11 06:26:08;;;;;;;1.40;1.30;;;;;;;;;;1767022;79;22208;-60
2022/12/11 06:28:35;;;;;;;2.00;1.73;;;;;;;;;;1773305;79;20961;-61
2022/12/11 06:31:01;;;;;;;7.20;1.90;;;;;;;;;;1769980;79;20964;-62
2022/12/11 06:33:27;;;;;;;1.87;1.77;;;;;;;;;;1773606;79;20994;-62
2022/12/11 06:35:53;;;;;;;4.70;1.70;;;;;;;;;;1766148;79;21846;-61
2022/12/11 06:38:22;;;;;;;2.17;1.90;;;;;;;;;;1768507;79;21054;-63
2022/12/11 06:40:58;;;;;;;2.90;1.50;;;;;;;;;;1773479;79;21571;-62
2022/12/11 06:43:24;;;;;;;2.20;1.80;;;;;;;;;;1775260;79;21824;-62
2022/12/11 06:45:50;;;;;;;2.47;1.93;;;;;;;;;;1766298;79;21059;-61
2022/12/11 06:48:17;;;;;;;6.50;2.50;;;;;;;;;;1768430;79;22583;-61
2022/12/11 06:50:43;;;;;;;5.07;1.53;;;;;;;;;;1772413;79;21065;-62
2022/12/11 06:53:10;;;;;;;3.57;2.10;;;;;;;;;;1769269;79;21064;-62
2022/12/11 06:55:37;;;;;;;11.73;1.87;;;;;;;;;;1771845;79;21650;-62
2022/12/11 06:58:04;;;;;;;3.20;1.60;;;;;;;;;;1764918;79;21491;-62
2022/12/11 07:00:30;;;;;;;1.53;1.43;;;;;;;;;;1766500;79;21864;-62
2022/12/11 07:02:56;;;;;;;5.90;1.93;;;;;;;;;;1769241;79;21046;-64
2022/12/11 07:05:22;;;;;;;2.33;1.40;;;;;;;;;;1771944;79;21314;-64
2022/12/11 07:07:49;;;;;;;4.27;1.27;;;;;;;;;;1766733;79;21606;-63
2022/12/11 07:10:15;;;;;;;1.73;1.30;;;;;;;;;;1769755;79;21065;-63
2022/12/11 07:12:41;;;;;;;1.53;1.10;;;;;;;;;;1752843;79;22877;-65
2022/12/11 07:15:08;;;;;;;1.60;1.50;;;;;;;;;;1737752;80;21756;-62
2022/12/11 07:17:34;;;;;;;2.20;1.47;;;;;;;;;;1745364;79;21538;-63
2022/12/11 07:20:01;;;;;;;2.67;2.00;;;;;;;;;;1745695;79;21041;-62
2022/12/11 07:22:27;;;;;;;1.53;1.40;;;;;;;;;;1740455;79;21081;-64
2022/12/11 07:24:54;;;;;;;1.83;1.53;;;;;;;;;;1735262;79;21946;-65
2022/12/11 07:27:21;;;;;;;2.13;1.20;;;;;;;;;;1744501;79;21050;-65
2022/12/11 07:29:47;;;;;;;1.67;1.57;;;;;;;;;;1739775;79;21242;-64
2022/12/11 07:32:13;;;;;;;5.83;1.40;;;;;;;;;;1707807;79;21554;-63
2022/12/11 07:34:40;;;;;;;2.90;1.20;;;;;;;;;;1741254;79;21116;-64
2022/12/11 07:37:06;;;;;;;3.67;1.57;;;;;;;;;;1741284;79;21818;-64
2022/12/11 07:39:32;;;;;;;2.40;1.67;;;;;;;;;;1745847;79;21210;-63
2022/12/11 07:41:58;;;;;;;6.30;1.67;;;;;;;;;;1744293;79;21632;-62
2022/12/11 07:44:25;;;;;;;2.83;1.50;;;;;;;;;;1735221;80;21059;-63
2022/12/11 07:46:51;;;;;;;4.07;1.77;;;;;;;;;;1742422;79;21035;-63
2022/12/11 07:49:17;;;;;;;3.40;1.77;;;;;;;;;;1742580;80;21854;-63
2022/12/11 07:51:44;;;;;;;3.35;1.65;;;;;;;;;;1746855;79;21046;-62
2022/12/11 07:54:15;;;;;;;3.67;1.67;;;;;;;;;;1745152;79;21040;-63
2022/12/11 07:56:39;;;;;;;3.00;1.80;;;;;;;;;;1747233;79;21033;-63
2022/12/11 07:59:06;;;;;;;3.97;1.40;;;;;;;;;;1743462;79;21116;-63
2022/12/11 08:01:35;;;;;;;3.53;1.40;;;;;;;;;;1743824;79;21939;-62
2022/12/11 08:04:02;;;;;;;1.90;1.80;;;;;;;;;;1706668;80;21092;-62
2022/12/11 08:06:30;;;;;;;2.67;1.73;;;;;;;;;;1738896;79;21076;-62
2022/12/11 08:08:56;;;;;;;2.35;1.65;;;;;;;;;;1746310;80;20978;-62
2022/12/11 08:11:23;;;;;;;5.20;1.87;;;;;;;;;;1744586;80;21053;-61
2022/12/11 08:13:49;;;;;;;1.77;1.67;;;;;;;;;;1763325;79;21822;-63
2022/12/11 08:16:16;;;;;;;3.17;2.85;;;;;;;;;;1773923;79;21000;-63
2022/12/11 08:18:42;;;;;;;2.20;2.00;;;;;;;;;;1773887;79;21041;-63
2022/12/11 08:21:10;;;;;;;11.48;2.40;;;;;;;;;;1773568;80;20966;-62
2022/12/11 08:23:37;;;;;;;1.97;1.87;;;;;;;;;;1773577;79;20982;-61
2022/12/11 08:26:05;;;;;;;2.23;2.00;;;;;;;;;;1773726;79;21789;-63
2022/12/11 08:28:32;;;;;;;3.65;1.45;;;;;;;;;;1773989;79;21049;-61
2022/12/11 08:30:59;;;;;;;1.65;1.52;;;;;;;;;;1774989;79;21640;-62
2022/12/11 08:33:25;;;;;;;9.28;1.82;;;;;;;;;;1771625;79;21104;-61
2022/12/11 08:35:51;;;;;;;5.53;2.17;;;;;;;;;;1769012;79;21045;-62
2022/12/11 08:38:17;;;;;;;4.62;1.52;;;;;;;;;;1773294;79;21758;-62
2022/12/11 08:40:45;;;;;;;2.15;2.05;;;;;;;;;;1772249;79;21207;-62
2022/12/11 08:43:13;;;;;;;3.90;2.95;;;;;;;;;;1772152;79;21512;-62
2022/12/11 08:45:39;;;;;;;2.80;1.10;;;;;;;;;;1767031;79;21186;-63
2022/12/11 08:48:05;;;;;;;2.40;1.40;;;;;;;;;;1765900;79;21056;-60
2022/12/11 08:50:31;;;;;;;2.05;1.30;;;;;;;;;;1765912;80;21810;-63
2022/12/11 08:52:58;;;;;;;5.55;2.58;;;;;;;;;;1767319;79;22820;-62
2022/12/11 08:55:24;;;;;;;3.33;1.40;;;;;;;;;;1772442;79;21046;-62
2022/12/11 08:57:50;;;;;;;3.87;1.57;;;;;;;;;;1769584;79;21213;-61
2022/12/11 09:00:17;;;;;;;1.40;1.20;;;;;;;;;;1767429;79;21104;-62
2022/12/11 09:02:43;;;;;;;1.97;1.87;;;;;;;;;;1767887;80;22462;-63
2022/12/11 09:05:09;;;;;;;5.62;1.10;;;;;;;;;;1766849;80;21530;-61
2022/12/11 09:07:36;;;;;;;4.03;1.43;;;;;;;;;;1770185;80;21020;-60
2022/12/11 09:10:03;;;;;;;1.40;1.30;;;;;;;;;;1769102;79;21040;-61
2022/12/11 09:12:35;;;;;;;3.30;1.50;;;;;;;;;;1766647;79;20985;-61
2022/12/11 09:15:02;;;;;;;1.42;1.20;;;;;;;;;;1769540;79;21800;-60
2022/12/11 09:17:28;;;;;;;3.30;1.70;;;;;;;;;;1765518;79;21019;-60
2022/12/11 09:19:55;;;;;;;1.45;1.10;;;;;;;;;;1770100;79;20959;-63
2022/12/11 09:22:21;;;;;;;4.37;1.27;;;;;;;;;;1769770;79;21432;-60
2022/12/11 09:24:47;;;;;;;1.60;1.17;;;;;;;;;;1766295;79;21072;-60
2022/12/11 09:27:13;;;;;;;6.60;1.47;;;;;;;;;;1770067;79;21805;-62
2022/12/11 09:29:40;;;;;;;6.30;1.27;;;;;;;;;;1766448;79;21018;-62
2022/12/11 09:32:06;;;;;;;2.22;1.00;;;;;;;;;;1770806;79;20970;-61
2022/12/11 09:34:32;;;;;;;1.00;0.90;;;;;;;;;;1768381;79;21653;-60
2022/12/11 09:36:58;;;;;;;1.72;0.90;;;;;;;;;;1765275;79;21075;-62
2022/12/11 09:39:24;;;;;;;1.00;0.90;;;;;;;;;;1761206;79;22931;-60
2022/12/11 09:42:06;;;;;;;1.22;1.12;;;;;;;;;;1767474;79;21095;-63
2022/12/11 09:44:55;;;;;;;3.40;1.10;;;;;;;;;;1766804;79;21799;-62
2022/12/11 09:47:28;;;;;;;1.27;1.17;;;;;;;;;;1763641;79;21288;-60
2022/12/11 09:49:58;;;;;;;6.62;1.12;;;;;;;;;;1763078;79;21066;-62
2022/12/11 09:52:36;;;;;;;1.07;0.98;;;;;;;;;;1766944;79;21907;-63
2022/12/11 09:55:16;;;;;;;2.85;1.17;;;;;;;;;;1766176;79;21061;-62
2022/12/11 09:57:49;;;;;;;1.42;1.32;;;;;;;;;;1767627;79;21337;-62
2022/12/11 10:00:27;;;;;;;1.75;1.00;;;;;;;;;;1767777;79;21693;-61
2022/12/11 10:03:17;;;;;;;6.33;1.37;;;;;;;;;;1765325;80;21639;-63
2022/12/11 10:05:56;;;;;;;8.40;1.75;;;;;;;;;;1763208;79;21872;-61
2022/12/11 10:08:44;;;;;;;9.20;1.20;;;;;;;;;;1764507;79;22422;-63
2022/12/11 10:11:33;;;;;;;1.25;1.12;;;;;;;;;;1766963;79;21049;-62
2022/12/11 10:14:30;;;;;;;2.58;0.90;;;;;;;;;;1760534;79;21223;-64
2022/12/11 10:16:59;;;;;;;1.57;0.90;;;;;;;;;;1762782;79;21050;-61
2022/12/11 10:19:27;;;;;;;0.75;0.75;;;;;;;;;;1762703;79;21803;-64
2022/12/11 10:21:53;;;;;;;0.85;0.75;;;;;;;;;;1761081;79;21038;-62
2022/12/11 10:24:29;;;;;;;2.37;0.75;;;;;;;;;;1757794;79;21069;-65
2022/12/11 10:26:57;;;;;;;1.15;0.80;;;;;;;;;;1760972;79;21112;-61
2022/12/11 10:29:23;;;;;;;1.50;0.80;;;;;;;;;;1759561;79;21088;-62
2022/12/11 10:31:53;;;;;;;0.60;0.60;;;;;;;;;;1763306;79;21184;-63
2022/12/11 10:34:29;;;;;;;4.87;0.70;;;;;;;;;;1757402;79;21061;-65
2022/12/11 10:36:56;;;;;;;3.33;1.07;;;;;;;;;;1760380;79;21491;-62
2022/12/11 10:39:22;;;;;;;0.70;0.60;;;;;;;;;;1761079;79;20991;-63
2022/12/11 10:41:49;;;;;;;2.55;0.80;;;;;;;;;;1763285;79;21081;-63
2022/12/11 10:44:27;;;;;;;0.78;0.70;;;;;;;;;;1757350;79;21789;-61
2022/12/11 10:47:04;;;;;;;0.70;0.70;;;;;;;;;;1759185;79;21296;-62
2022/12/11 10:49:32;;;;;;;3.95;0.80;;;;;;;;;;1759023;79;21570;-65
2022/12/11 10:52:01;;;;;;;3.27;0.90;;;;;;;;;;1755885;79;21671;-64
2022/12/11 10:54:34;;;;;;;1.15;1.05;;;;;;;;;;1762868;79;21085;-61
2022/12/11 10:57:01;;;;;;;2.55;0.90;;;;;;;;;;1762794;79;23628;-63
2022/12/11 10:59:46;;;;;;;1.00;0.90;;;;;;;;;;1737188;79;21114;-63
2022/12/11 11:02:34;;;;;;;0.95;0.80;;;;;;;;;;1718408;79;21029;-64
2022/12/11 11:05:16;;;;;;;1.00;0.90;;;;;;;;;;1760684;79;21085;-61
2022/12/11 11:07:42;;;;;;;0.88;0.88;;;;;;;;;;1761990;79;21524;-61
2022/12/11 11:10:12;;;;;;;1.60;0.90;;;;;;;;;;1758202;79;21828;-64
2022/12/11 11:12:44;;;;;;;1.02;0.98;;;;;;;;;;1757879;79;21136;-63
2022/12/11 11:15:28;;;;;;;2.55;1.10;;;;;;;;;;1763014;79;21018;-63
2022/12/11 11:17:57;;;;;;;1.10;0.82;;;;;;;;;;1758304;79;21669;-62
2022/12/11 11:20:26;;;;;;;1.22;1.00;;;;;;;;;;1761982;79;21496;-62
2022/12/11 11:22:57;;;;;;;1.05;0.95;;;;;;;;;;1757498;79;21843;-62
2022/12/11 11:25:25;;;;;;;1.60;1.02;;;;;;;;;;1759999;79;21190;-63
2022/12/11 11:28:05;;;;;;;0.98;0.88;;;;;;;;;;1761511;79;21006;-59
2022/12/11 11:30:34;;;;;;;1.00;0.90;;;;;;;;;;1761902;79;21512;-60
2022/12/11 11:33:06;;;;;;;0.98;0.90;;;;;;;;;;1758206;79;21093;-60
2022/12/11 11:35:32;;;;;;;1.50;0.90;;;;;;;;;;1750199;79;21942;-58
2022/12/11 11:38:06;;;;;;;0.80;0.72;;;;;;;;;;1764904;79;21062;-61
2022/12/11 11:40:37;;;;;;;2.52;2.02;;;;;;;;;;1756730;79;21065;-62
2022/12/11 11:43:27;;;;;;;3.17;2.47;;;;;;;;;;1761828;79;21693;-59
2022/12/11 11:46:14;;;;;;;2.90;1.45;;;;;;;;;;1761745;79;20979;-59
2022/12/11 11:49:20;;;;;;;2.47;2.05;;;;;;;;;;1761367;79;21878;-62
2022/12/11 11:52:02;;;;;;;1.10;0.90;;;;;;;;;;1766057;79;21598;-60
2022/12/11 11:54:32;;;;;;;0.95;0.80;;;;;;;;;;1761988;79;21079;-60
2022/12/11 11:56:58;;;;;;;1.00;0.90;;;;;;;;;;1763382;79;21540;-63
2022/12/11 11:59:30;;;;;;;0.70;0.65;;;;;;;;;;1762783;79;21050;-60
2022/12/11 12:01:57;;;;;;;0.98;0.80;;;;;;;;;;1762808;79;23075;-58
2022/12/11 12:04:25;;;;;;;1.30;0.80;;;;;;;;;;1764807;79;21403;-63
2022/12/11 12:07:23;;;;;;;2.12;0.70;;;;;;;;;;1760947;79;20990;-60
2022/12/11 12:09:56;;;;;;;2.77;0.70;;;;;;;;;;1768260;79;20999;-59
2022/12/11 12:12:34;;;;;;;0.72;0.60;;;;;;;;;;1765017;80;21041;-58
2022/12/11 12:15:18;;;;;;;1.80;0.70;;;;;;;;;;1765805;79;21863;-59
2022/12/11 12:17:55;;;;;;;1.02;0.60;;;;;;;;;;1764191;79;20979;-61
2022/12/11 12:20:39;;;;;;;0.65;0.65;;;;;;;;;;1761903;79;20968;-61
2022/12/11 12:23:30;;;;;;;0.72;0.60;;;;;;;;;;1767330;79;21583;-61
2022/12/11 12:26:12;;;;;;;0.70;0.60;;;;;;;;;;1767604;79;20974;-57
2022/12/11 12:28:54;;;;;;;0.72;0.60;;;;;;;;;;1762214;79;22909;-60
2022/12/11 12:31:33;;;;;;;0.40;0.40;;;;;;;;;;1765707;79;21030;-56
2022/12/11 12:34:05;;;;;;;1.70;0.50;;;;;;;;;;1759281;79;21629;-59
2022/12/11 12:36:50;;;;;;;0.75;0.57;;;;;;;;;;1760722;79;21074;-57
2022/12/11 12:39:32;;;;;;;1.72;0.60;;;;;;;;;;1759213;79;23564;-58
2022/12/11 12:42:29;;;;;;;0.40;0.40;;;;;;;;;;1763854;79;21840;-60
2022/12/11 12:45:02;;;;;;;0.50;0.50;;;;;;;;;;1722431;81;21138;-57
2022/12/11 12:47:31;;;;;;;0.70;0.60;;;;;;;;;;1719673;81;21570;-56
2022/12/11 12:49:57;;;;;;;0.90;0.50;;;;;;;;;;1717093;82;21527;-56
2022/12/11 12:52:32;;;;;;;0.57;0.50;;;;;;;;;;1721825;81;21604;-62
2022/12/11 12:55:17;;;;;;;;;;;;;;;;;;1719369;81;21835;-59
2022/12/11 12:57:49;;;;;;;0.80;0.57;;;;;;;;;;1719888;81;20373;-56
2022/12/11 13:00:34;;;;;;;0.50;0.50;;;;;;;;;;1724455;81;21133;-63
2022/12/11 13:03:03;;;;;;;0.62;0.50;;;;;;;;;;1669142;81;21139;-56
2022/12/11 13:05:32;;;;;;;0.55;0.50;;;;;;;;;;1713603;81;21080;-57
2022/12/11 13:08:00;;;;;;;0.60;0.60;;;;;;;;;;1725110;81;21843;-58
2022/12/11 13:10:31;;;;;;;0.80;0.47;;;;;;;;;;1722386;81;21082;-58
2022/12/11 13:12:57;;;;;;;1.20;0.47;;;;;;;;;;1720312;81;21074;-59
2022/12/11 13:15:39;;;;;;;0.70;0.50;;;;;;;;;;1723771;81;22317;-60
2022/12/11 13:18:26;;;;;;;0.78;0.60;;;;;;;;;;1720149;81;21102;-57
2022/12/11 13:20:52;;;;;;;0.70;0.50;;;;;;;;;;1723095;81;23132;-58
2022/12/11 13:23:28;;;;;;;0.60;0.60;;;;;;;;;;1723779;81;21144;-57
2022/12/11 13:25:59;;;;;;;0.70;0.60;;;;;;;;;;1723189;81;21458;-57
2022/12/11 13:28:34;;;;;;;0.78;0.50;;;;;;;;;;1725383;81;21114;-57
2022/12/11 13:31:16;;;;;;;0.70;0.60;;;;;;;;;;1723221;82;21094;-56
2022/12/11 13:33:50;;;;;;;1.70;0.60;;;;;;;;;;1724580;81;21822;-58
2022/12/11 13:36:34;;;;;;;0.75;0.50;;;;;;;;;;1725600;81;21160;-57
2022/12/11 13:39:05;;;;;;;3.12;0.70;;;;;;;;;;1725671;81;21101;-57
2022/12/11 13:41:33;;;;;;;0.60;0.50;;;;;;;;;;1726548;81;21084;-55
2022/12/11 13:43:59;;;;;;;0.47;0.40;;;;;;;;;;1720777;81;21138;-55
2022/12/11 13:46:27;;;;;;;0.57;0.45;;;;;;;;;;1717949;81;23457;-55
2022/12/11 13:48:59;;;;;;;1.87;0.62;;;;;;;;;;1725744;82;21043;-56
2022/12/11 13:51:28;;;;;;;0.55;0.40;;;;;;;;;;1720371;82;21059;-57
2022/12/11 13:54:14;;;;;;;1.17;0.40;;;;;;;;;;1719301;82;21088;-56
2022/12/11 13:56:53;;;;;;;0.50;0.50;;;;;;;;;;1722216;81;21046;-57
2022/12/11 14:01:31;;;;;;;0.93;0.50;;;;;;;;;;1782702;78;23206;-57
2022/12/11 14:04:03;;;;;;;0.98;0.50;;;;;;;;;;1768571;79;21080;-59
2022/12/11 14:06:29;;;;;;;0.72;0.50;;;;;;;;;;1761199;79;22497;-60
2022/12/11 14:08:57;;;;;;;1.10;0.72;;;;;;;;;;1766819;80;21073;-57
2022/12/11 14:11:26;;;;;;;0.62;0.50;;;;;;;;;;1754999;80;21081;-56
2022/12/11 14:13:55;;;;;;;2.50;1.30;;;;;;;;;;1770341;79;21542;-57
2022/12/11 14:16:22;;;;;;;0.90;0.70;;;;;;;;;;1766664;79;21439;-61
2022/12/11 14:18:49;;;;;;;0.80;0.40;;;;;;;;;;1782204;79;21945;-58
2022/12/11 14:21:25;;;;;;;1.07;0.60;;;;;;;;;;1781124;79;21042;-56
2022/12/11 14:23:54;;;;;;;0.88;0.60;;;;;;;;;;1773892;79;21040;-57
2022/12/11 14:26:23;;;;;;;1.05;0.50;;;;;;;;;;1747533;79;21566;-56
2022/12/11 14:28:49;;;;;;;0.50;0.40;;;;;;;;;;1738663;80;21247;-56
2022/12/11 14:31:19;;;;;;;0.88;0.40;;;;;;;;;;1725029;80;23306;-55
2022/12/11 14:33:50;;;;;;;2.05;0.40;;;;;;;;;;1748780;79;21226;-57
2022/12/11 14:36:17;;;;;;;0.50;0.45;;;;;;;;;;1749383;79;21123;-54
2022/12/11 14:38:46;;;;;;;0.40;0.40;;;;;;;;;;1748682;79;21089;-57
2022/12/11 14:41:22;;;;;;;0.40;0.30;;;;;;;;;;1746292;79;21809;-57
2022/12/11 14:43:54;;;;;;;0.40;0.30;;;;;;;;;;1736934;79;21824;-57
2022/12/11 14:46:23;;;;;;;1.72;0.65;;;;;;;;;;1748763;79;21645;-54
2022/12/11 14:48:52;;;;;;;0.60;0.50;;;;;;;;;;1742336;79;21090;-57
2022/12/11 14:51:18;;;;;;;0.60;0.40;;;;;;;;;;1748868;80;21464;-55
2022/12/11 14:53:46;;;;;;;1.10;0.60;;;;;;;;;;1738811;79;21128;-58
2022/12/11 14:56:16;;;;;;;0.68;0.40;;;;;;;;;;1737779;79;21887;-60
2022/12/11 14:58:46;;;;;;;0.80;0.50;;;;;;;;;;1744951;80;21081;-61
2022/12/11 15:01:27;;;;;;;0.60;0.60;;;;;;;;;;1742741;79;21053;-57
2022/12/11 15:04:05;;;;;;;0.68;0.45;;;;;;;;;;1733835;80;21051;-57
2022/12/11 15:06:34;;;;;;;2.00;0.80;;;;;;;;;;1732480;79;21053;-61
2022/12/11 15:09:21;;;;;;;7.87;5.45;;;;;;;;;;1742878;79;21768;-55